Current | Forecast
Updated: 2:30 PM JST on August 23, 2017
Observed at Chitose AB, Japan
Temperature 82°F
Humidity 66%
Dew Point 70°F
Wind Variable at 4 mph
Pressure 29.68 in (Steady)
Conditions Partly Cloudy
Visibility 6.2 miles
UV 4 out of 16
Clouds (FEW) : 2500 ft
Yesterday's Maximum 70°F
Yesterday's Minimum 66°F approx.
Yesterday's Cooling Degree Days 3 approx.
Sunrise4:46 AM JST
Sunset6:23 PM JST
Moon Rise6:01 AM JST
Moon Set7:18 PM JST
Moon PhaseMoon Phase
Waxing Crescent
Raw METARMETAR RJCC 230530Z VRB03KT 9999 FEW025 BKN/// 28/21 Q1005 RMK 1CU025 A2968


Monday
. High: 73° F.
Tuesday
. High: 73° F.
Wednesday
. High: 64° F.
Thursday
. High: 62° F.
Friday
. High: 64° F.
Saturday
. High: 60° F.
Sunday
. High: 50° F.
Monday
. High: 55° F.

Units: English | Metric

Find the Weather for any City, State or Zipcode, or Country:

U.S. State List | Severe Weather | Tropical Storms | Ski Conditions
United States | Canada | Central America | South America | Asia | Europe | Australia | Africa | Islands

Weather Underground

© Copyright 2017
The Weather Company, LLC